createdAt,value
2022-08-07T00:02:36.399Z,96775.41
2022-08-07T00:05:00.233Z,96781.41
2022-08-07T00:07:28.695Z,96747.16
2022-08-07T00:10:27.116Z,96771.63
2022-08-07T00:13:00.589Z,96741.19
2022-08-07T00:15:38.203Z,96769.47
2022-08-07T00:18:19.329Z,96774.19
2022-08-07T00:20:50.527Z,96775.84
2022-08-07T00:23:21.167Z,96789.75
2022-08-07T00:25:58.836Z,96778.06
2022-08-07T00:28:33.646Z,96757.94
2022-08-07T00:31:04.349Z,96774.16
2022-08-07T00:33:34.590Z,96775.91
2022-08-07T00:36:05.286Z,96775.38
2022-08-07T00:38:34.300Z,96779.88
2022-08-07T00:41:02.837Z,96772.97
2022-08-07T00:44:00.889Z,96781.94
2022-08-07T00:46:19.122Z,96775.53
2022-08-07T00:48:49.865Z,96773.75
2022-08-07T00:51:21.571Z,96778.94
2022-08-07T00:53:55.255Z,96768.03
2022-08-07T00:56:29.977Z,96775.66
2022-08-07T00:58:58.874Z,96778.53
2022-08-07T01:01:27.357Z,96777.00
2022-08-07T01:04:00.126Z,96781.78
2022-08-07T01:06:30.458Z,96782.47
2022-08-07T01:09:01.497Z,96780.03
2022-08-07T01:12:09.100Z,96774.16
2022-08-07T01:14:28.113Z,96761.53
2022-08-07T01:16:57.561Z,96787.25
2022-08-07T01:19:26.333Z,96785.63
2022-08-07T01:21:56.235Z,96786.84
2022-08-07T01:24:24.680Z,96780.19
2022-08-07T01:26:53.925Z,96775.03
2022-08-07T01:29:27.984Z,96771.22
2022-08-07T01:31:59.933Z,96766.19
2022-08-07T01:34:30.581Z,96759.88
2022-08-07T01:37:01.860Z,96773.78
2022-08-07T01:39:41.293Z,96779.47
2022-08-07T01:42:37.725Z,96775.53
2022-08-07T01:45:04.377Z,96745.63
2022-08-07T01:48:19.231Z,96772.53
2022-08-07T01:50:28.833Z,96773.06
2022-08-07T01:53:00.468Z,96766.41
2022-08-07T01:55:33.396Z,96739.63
2022-08-07T01:58:27.283Z,96754.03
2022-08-07T02:01:09.542Z,96759.50
2022-08-07T02:03:50.363Z,96745.22
2022-08-07T02:06:31.366Z,96755.28
2022-08-07T02:09:04.842Z,96751.91
2022-08-07T02:12:04.138Z,96760.75
2022-08-07T02:14:35.926Z,96761.97
2022-08-07T02:17:06.112Z,96760.91
2022-08-07T02:20:04.740Z,96759.91
2022-08-07T02:22:25.930Z,96753.13
2022-08-07T02:24:56.112Z,96714.06
2022-08-07T02:27:25.165Z,96742.81
2022-08-07T02:29:54.564Z,96729.34
2022-08-07T02:32:30.048Z,96749.19
2022-08-07T02:35:00.801Z,96750.44
2022-08-07T02:37:34.193Z,96738.28
2022-08-07T02:40:29.894Z,96737.34
2022-08-07T02:42:57.759Z,96738.41
2022-08-07T02:45:57.629Z,96740.59
2022-08-07T02:48:16.391Z,96717.88
2022-08-07T02:50:46.861Z,96733.53
2022-08-07T02:53:19.521Z,96733.13
2022-08-07T02:56:02.203Z,96735.72
2022-08-07T02:58:33.386Z,96731.34
2022-08-07T03:01:04.026Z,96733.94
2022-08-07T03:03:49.913Z,96725.22
2022-08-07T03:06:25.966Z,96720.72
2022-08-07T03:09:01.638Z,96710.94
2022-08-07T03:11:32.948Z,96718.56
2022-08-07T03:14:07.031Z,96719.91
2022-08-07T03:16:35.860Z,96732.06
2022-08-07T03:19:06.947Z,96723.19
2022-08-07T03:21:37.252Z,96725.78
2022-08-07T03:24:19.720Z,96718.03
2022-08-07T03:26:58.793Z,96712.56
2022-08-07T03:29:29.605Z,96692.31
2022-08-07T03:31:58.120Z,96713.38
2022-08-07T03:34:28.675Z,96715.69
2022-08-07T03:36:58.071Z,96718.56
2022-08-07T03:39:46.144Z,96714.09
2022-08-07T03:42:18.062Z,96710.41
2022-08-07T03:44:53.564Z,96722.13
2022-08-07T03:47:27.881Z,96716.00
2022-08-07T03:49:58.380Z,96714.63
2022-08-07T03:52:28.734Z,96712.72
2022-08-07T03:55:06.208Z,96710.53
2022-08-07T03:58:32.573Z,96718.03
2022-08-07T04:00:29.282Z,96704.16
2022-08-07T04:03:04.243Z,96680.47
2022-08-07T04:05:41.037Z,96713.69
2022-08-07T04:08:12.548Z,96709.84
2022-08-07T04:10:54.543Z,96718.97
2022-08-07T04:14:10.098Z,96713.41
2022-08-07T04:16:31.311Z,96718.28
2022-08-07T04:19:03.728Z,96721.56
2022-08-07T04:21:33.421Z,96721.28
2022-08-07T04:24:06.022Z,96719.38
2022-08-07T04:26:36.073Z,96729.31
2022-08-07T04:29:05.763Z,96723.75
2022-08-07T04:32:09.493Z,96722.53
2022-08-07T04:34:33.296Z,96721.97
2022-08-07T04:37:07.975Z,96717.06
2022-08-07T04:39:47.882Z,96718.56
2022-08-07T04:42:18.001Z,96723.19
2022-08-07T04:45:02.687Z,96727.41
2022-08-07T04:48:01.133Z,96732.69
2022-08-07T04:50:33.656Z,96724.53
2022-08-07T04:53:07.331Z,96698.84
2022-08-07T04:58:16.701Z,96714.50
2022-08-07T05:01:40.688Z,96729.06
2022-08-07T05:04:17.762Z,96696.69
2022-08-07T05:06:53.440Z,96737.06
2022-08-07T05:09:46.181Z,96742.22
2022-08-07T05:12:26.729Z,96742.28
2022-08-07T05:15:04.254Z,96742.38
2022-08-07T05:17:52.068Z,96748.50
2022-08-07T05:20:27.023Z,96743.88
2022-08-07T05:22:58.560Z,96753.94
2022-08-07T05:25:36.799Z,96745.63
2022-08-07T05:28:20.481Z,96747.38
2022-08-07T05:30:52.839Z,96747.78
2022-08-07T05:33:23.005Z,96743.66
2022-08-07T05:35:52.255Z,96753.84
2022-08-07T05:39:00.673Z,96725.50
2022-08-07T05:41:14.540Z,96736.38
2022-08-07T05:44:08.647Z,96716.06
2022-08-07T05:46:39.058Z,96737.16
2022-08-07T05:49:12.594Z,96743.41
2022-08-07T05:51:42.355Z,96741.19
2022-08-07T05:54:29.987Z,96735.41
2022-08-07T05:56:59.477Z,96729.94
2022-08-07T05:59:28.256Z,96735.03
2022-08-07T06:02:08.099Z,96731.00
2022-08-07T06:04:42.640Z,96724.63
2022-08-07T06:07:11.938Z,96723.09
2022-08-07T06:10:05.491Z,96720.28
2022-08-07T06:12:36.972Z,96727.03
2022-08-07T06:15:07.380Z,96716.91
2022-08-07T06:17:38.026Z,96720.03
2022-08-07T06:20:31.895Z,96717.72
2022-08-07T06:23:25.557Z,96721.66
2022-08-07T06:25:54.355Z,96726.09
2022-08-07T06:28:27.787Z,96715.59
2022-08-07T06:30:58.358Z,96715.00
2022-08-07T06:33:26.877Z,96723.31
2022-08-07T06:36:11.884Z,96721.69
2022-08-07T06:38:59.273Z,96732.56
2022-08-07T06:42:02.018Z,96722.69
2022-08-07T06:44:22.876Z,96718.31
2022-08-07T06:46:53.274Z,96719.22
2022-08-07T06:49:28.369Z,96713.84
2022-08-07T06:51:59.598Z,96716.72
2022-08-07T06:55:34.340Z,96722.81
2022-08-07T06:57:39.376Z,96692.50
2022-08-07T07:00:18.432Z,96687.16
2022-08-07T07:02:57.345Z,96718.97
2022-08-07T07:06:03.844Z,96725.81
2022-08-07T07:08:18.866Z,96724.56
2022-08-07T07:10:57.481Z,96721.56
2022-08-07T07:13:56.526Z,96723.72
2022-08-07T07:16:22.081Z,96736.94
2022-08-07T07:18:51.829Z,96732.69
2022-08-07T07:21:27.002Z,96744.91
2022-08-07T07:24:12.498Z,96734.78
2022-08-07T07:26:49.862Z,96728.66
2022-08-07T07:29:56.299Z,96721.28
2022-08-07T07:32:14.306Z,96714.81
2022-08-07T07:34:46.662Z,96720.50
2022-08-07T07:37:44.376Z,96729.13
2022-08-07T07:40:16.049Z,96719.72
2022-08-07T07:42:51.096Z,96686.38
2022-08-07T07:46:37.587Z,96705.41
2022-08-07T07:48:35.300Z,96715.69
2022-08-07T07:51:07.782Z,96679.88
2022-08-07T07:53:52.800Z,96710.47
2022-08-07T07:56:30.532Z,96715.50
2022-08-07T07:59:01.554Z,96708.28
2022-08-07T08:02:02.855Z,96700.44
2022-08-07T08:04:25.779Z,96705.94
2022-08-07T08:06:55.565Z,96705.94
2022-08-07T08:09:29.565Z,96705.81
2022-08-07T08:12:05.983Z,96700.06
2022-08-07T08:14:36.600Z,96668.81
2022-08-07T08:17:56.093Z,96702.94
2022-08-07T08:20:19.215Z,96700.25
2022-08-07T08:23:04.206Z,96693.41
2022-08-07T08:25:57.567Z,96691.84
2022-08-07T08:28:37.322Z,96698.94
2022-08-07T08:31:08.054Z,96695.19
2022-08-07T08:33:49.283Z,96653.66
2022-08-07T08:36:29.702Z,96689.25
2022-08-07T08:39:02.025Z,96694.41
2022-08-07T08:41:57.286Z,96697.28
2022-08-07T08:44:33.284Z,96684.28
2022-08-07T08:47:07.747Z,96675.91
2022-08-07T08:49:46.314Z,96673.94
2022-08-07T08:52:53.771Z,96683.25
2022-08-07T08:55:55.429Z,96697.13
2022-08-07T08:58:24.744Z,96693.94
2022-08-07T09:01:02.106Z,96694.59
2022-08-07T09:03:52.993Z,96682.84
2022-08-07T09:06:37.618Z,96687.31
2022-08-07T09:09:23.629Z,96687.50
2022-08-07T09:12:08.985Z,96691.03
2022-08-07T09:16:23.533Z,96685.97
2022-08-07T09:18:10.074Z,96693.78
2022-08-07T09:20:58.080Z,96694.13
2022-08-07T09:24:54.550Z,96683.31
2022-08-07T09:26:30.921Z,96686.22
2022-08-07T09:30:06.697Z,96686.19
2022-08-07T09:32:03.928Z,96679.69
2022-08-07T09:34:54.023Z,96679.63
2022-08-07T09:37:33.555Z,96675.06
2022-08-07T09:40:23.654Z,96680.06
2022-08-07T09:42:58.638Z,96664.44
2022-08-07T09:47:23.828Z,96659.09
2022-08-07T09:48:56.040Z,96632.13
2022-08-07T09:52:10.008Z,96665.16
2022-08-07T09:54:37.618Z,96665.91
2022-08-07T09:57:28.171Z,96643.75
2022-08-07T10:00:14.449Z,96528.84
2022-08-07T10:04:05.331Z,96663.16
2022-08-07T10:06:17.962Z,96652.03
2022-08-07T10:09:42.877Z,96662.72
2022-08-07T10:12:30.240Z,96660.03
2022-08-07T10:15:44.198Z,96651.47
2022-08-07T10:18:26.353Z,96646.06
2022-08-07T10:21:19.632Z,96645.19
2022-08-07T10:24:39.666Z,96642.13
2022-08-07T10:27:20.686Z,96641.91
2022-08-07T10:30:06.358Z,96629.66
2022-08-07T10:33:05.768Z,96647.53
2022-08-07T10:35:53.588Z,96646.13
2022-08-07T10:38:47.831Z,96642.44
2022-08-07T10:41:46.460Z,96637.13
2022-08-07T10:44:19.531Z,96634.59
2022-08-07T10:47:14.173Z,96625.59
2022-08-07T10:49:51.049Z,96632.97
2022-08-07T10:52:31.873Z,96622.53
2022-08-07T10:55:26.725Z,96634.47
2022-08-07T10:58:12.438Z,96629.63
2022-08-07T11:00:50.626Z,96621.38
2022-08-07T11:03:37.753Z,96593.88
2022-08-07T11:06:26.839Z,96624.63
2022-08-07T11:09:01.447Z,96622.25
2022-08-07T11:11:36.027Z,96620.06
2022-08-07T11:14:56.884Z,96586.50
2022-08-07T11:17:02.202Z,96592.91
2022-08-07T11:19:40.243Z,96607.97
2022-08-07T11:22:26.531Z,96606.00
2022-08-07T11:25:07.417Z,96607.72
2022-08-07T11:28:03.258Z,96597.19
2022-08-07T11:30:41.880Z,96596.31
2022-08-07T11:33:18.837Z,96590.06
2022-08-07T11:36:15.278Z,96592.97
2022-08-07T11:38:54.090Z,96588.78
2022-08-07T11:41:31.072Z,96592.88
2022-08-07T11:44:20.040Z,96597.53
2022-08-07T11:46:58.403Z,96586.41
2022-08-07T11:50:30.696Z,96587.19
2022-08-07T11:53:02.275Z,96585.41
2022-08-07T11:56:25.568Z,96588.47
2022-08-07T11:58:54.652Z,96587.94
2022-08-07T12:01:58.799Z,96586.16
2022-08-07T12:04:39.074Z,96576.56
2022-08-07T12:07:20.219Z,96574.94
2022-08-07T12:10:05.859Z,96577.19
2022-08-07T12:12:39.167Z,96570.09
2022-08-07T12:15:17.166Z,96541.31
2022-08-07T12:18:11.260Z,96558.13
2022-08-07T12:20:46.409Z,96564.50
2022-08-07T12:24:07.482Z,96561.94
2022-08-07T12:26:40.620Z,96568.22
2022-08-07T12:29:20.455Z,96561.56
2022-08-07T12:32:13.954Z,96564.06
2022-08-07T12:34:49.373Z,96560.13
2022-08-07T12:37:23.416Z,96558.88
2022-08-07T12:39:59.513Z,96565.56
2022-08-07T12:42:31.871Z,96549.75
2022-08-07T12:45:06.495Z,96566.25
2022-08-07T12:47:44.025Z,96559.75
2022-08-07T12:50:39.396Z,96559.38
2022-08-07T12:53:17.842Z,96558.41
2022-08-07T12:56:01.988Z,96554.53
2022-08-07T12:58:39.460Z,96529.22
2022-08-07T13:01:27.954Z,96535.25
2022-08-07T13:04:18.987Z,96557.25
2022-08-07T13:07:07.950Z,96554.72
2022-08-07T13:10:20.052Z,96565.03
2022-08-07T13:12:48.037Z,96563.38
2022-08-07T13:15:29.690Z,96555.88
2022-08-07T13:18:26.369Z,96549.69
2022-08-07T13:21:03.927Z,96545.69
2022-08-07T13:24:00.578Z,96550.56
2022-08-07T13:26:32.954Z,96546.13
2022-08-07T13:29:11.049Z,96543.09
2022-08-07T13:31:57.337Z,96538.97
2022-08-07T13:34:35.922Z,96544.09
2022-08-07T13:37:19.620Z,96512.03
2022-08-07T13:40:35.555Z,96542.00
2022-08-07T13:42:44.354Z,96544.19
2022-08-07T13:46:06.684Z,96541.72
2022-08-07T13:48:08.183Z,96531.41
2022-08-07T13:50:45.255Z,96492.19
2022-08-07T13:53:55.054Z,96534.81
2022-08-07T13:56:35.319Z,96526.66
2022-08-07T13:59:16.020Z,96529.66
2022-08-07T14:02:03.819Z,96522.34
2022-08-07T14:04:49.000Z,96527.00
2022-08-07T14:07:22.943Z,96519.22
2022-08-07T14:10:02.783Z,96529.66
2022-08-07T14:12:55.668Z,96520.56
2022-08-07T14:15:32.000Z,96524.97
2022-08-07T14:18:27.061Z,96526.41
2022-08-07T14:21:20.753Z,96521.09
2022-08-07T14:24:00.609Z,96518.16
2022-08-07T14:26:33.697Z,96520.38
2022-08-07T14:29:10.481Z,96526.16
2022-08-07T14:31:57.768Z,96525.38
2022-08-07T14:34:30.078Z,96490.78
2022-08-07T14:37:06.937Z,96529.38
2022-08-07T14:40:18.232Z,96522.31
2022-08-07T14:43:01.190Z,96519.50
2022-08-07T14:45:48.703Z,96523.25
2022-08-07T14:48:20.168Z,96514.41
2022-08-07T14:50:51.665Z,96511.06
2022-08-07T14:54:03.591Z,96473.78
2022-08-07T14:56:14.286Z,96513.00
2022-08-07T14:58:45.414Z,96497.97
2022-08-07T15:04:10.683Z,96502.78
2022-08-07T15:06:47.622Z,96506.03
2022-08-07T15:09:59.067Z,96512.22
2022-08-07T15:12:26.079Z,96506.06
2022-08-07T15:15:07.312Z,96509.44
2022-08-07T15:17:54.857Z,96501.38
2022-08-07T15:20:32.951Z,96497.00
2022-08-07T15:25:56.446Z,96483.06
2022-08-07T15:28:34.604Z,96482.56
2022-08-07T15:31:12.202Z,96491.53
2022-08-07T15:33:42.752Z,96475.00
2022-08-07T15:36:11.758Z,96469.97
2022-08-07T15:38:51.202Z,96488.69
2022-08-07T15:42:44.295Z,96472.69
2022-08-07T15:47:16.791Z,96473.00
2022-08-07T15:50:05.739Z,96476.25
2022-08-07T15:52:38.471Z,96476.16
2022-08-07T15:55:12.280Z,96471.31
2022-08-07T15:57:48.400Z,96460.69
2022-08-07T16:00:31.528Z,96458.19
2022-08-07T16:03:22.204Z,96463.75
2022-08-07T16:06:00.412Z,96462.34
2022-08-07T16:08:37.975Z,96460.53
2022-08-07T16:11:27.171Z,96423.59
2022-08-07T16:14:03.468Z,96456.28
2022-08-07T16:16:48.222Z,96449.22
2022-08-07T16:19:42.962Z,96452.88
2022-08-07T16:22:55.428Z,96429.19
2022-08-07T16:25:56.717Z,96454.13
2022-08-07T16:30:06.067Z,96452.06
2022-08-07T16:31:57.430Z,96455.47
2022-08-07T16:34:33.059Z,96448.47
2022-08-07T16:38:05.497Z,96441.91
2022-08-07T16:41:02.300Z,96447.75
2022-08-07T16:44:53.687Z,96440.94
2022-08-07T16:47:26.798Z,96456.78
2022-08-07T16:50:35.983Z,96445.69
2022-08-07T16:54:01.913Z,96443.41
2022-08-07T16:56:33.282Z,96439.69
2022-08-07T16:59:14.234Z,96444.22
2022-08-07T17:01:52.734Z,96445.38
2022-08-07T17:04:36.849Z,96417.63
2022-08-07T17:07:28.464Z,96455.16
2022-08-07T17:10:32.927Z,96459.56
2022-08-07T17:13:41.297Z,96428.03
2022-08-07T17:16:22.125Z,96453.50
2022-08-07T17:19:04.635Z,96447.06
2022-08-07T17:21:51.524Z,96445.94
2022-08-07T17:24:50.532Z,96447.06
2022-08-07T17:27:32.821Z,96449.69
2022-08-07T17:30:14.285Z,96447.97
2022-08-07T17:33:04.111Z,96455.16
2022-08-07T17:36:02.921Z,96458.91
2022-08-07T17:38:37.367Z,96450.78
2022-08-07T17:42:02.409Z,96451.13
2022-08-07T17:44:13.682Z,96451.84
2022-08-07T17:46:52.168Z,96444.53
2022-08-07T17:49:30.058Z,96454.47
2022-08-07T17:52:30.906Z,96451.94
2022-08-07T17:55:07.188Z,96455.53
2022-08-07T17:57:58.909Z,96456.31
2022-08-07T18:00:34.271Z,96459.63
2022-08-07T18:03:17.993Z,96456.72
2022-08-07T18:06:03.137Z,96463.25
2022-08-07T18:09:01.412Z,96471.16
2022-08-07T18:12:17.575Z,96469.69
2022-08-07T18:14:29.300Z,96472.31
2022-08-07T18:17:01.123Z,96478.63
2022-08-07T18:21:06.350Z,96466.97
2022-08-07T18:22:33.914Z,96470.88
2022-08-07T18:25:24.079Z,96435.22
2022-08-07T18:28:35.372Z,96477.06
2022-08-07T18:31:18.373Z,96477.63
2022-08-07T18:34:37.808Z,96475.50
2022-08-07T18:37:09.223Z,96468.19
2022-08-07T18:40:07.443Z,96477.78
2022-08-07T18:42:59.752Z,96479.72
2022-08-07T18:46:22.111Z,96476.00
2022-08-07T18:50:05.759Z,96476.03
2022-08-07T18:52:25.606Z,96495.34
2022-08-07T18:54:27.613Z,96485.78
2022-08-07T18:57:30.843Z,96491.63
2022-08-07T19:00:34.240Z,96485.28
2022-08-07T19:03:03.908Z,96490.50
2022-08-07T19:06:03.426Z,96496.69
2022-08-07T19:08:47.085Z,96508.84
2022-08-07T19:11:36.268Z,96509.19
2022-08-07T19:14:17.047Z,96493.72
2022-08-07T19:17:04.740Z,96498.81
2022-08-07T19:19:46.547Z,96507.09
2022-08-07T19:22:30.683Z,96500.88
2022-08-07T19:25:06.415Z,96508.34
2022-08-07T19:28:56.894Z,96511.44
2022-08-07T19:31:04.381Z,96512.41
2022-08-07T19:33:16.076Z,96516.94
2022-08-07T19:35:53.945Z,96507.84
2022-08-07T19:38:23.360Z,96510.13
2022-08-07T19:41:01.074Z,96513.22
2022-08-07T19:43:48.680Z,96507.50
2022-08-07T19:46:29.095Z,96514.97
2022-08-07T19:49:01.158Z,96513.84
2022-08-07T19:51:52.737Z,96502.78
2022-08-07T19:54:34.717Z,96517.72
2022-08-07T19:58:02.455Z,96513.84
2022-08-07T20:00:10.173Z,96520.97
2022-08-07T20:02:52.035Z,96521.78
2022-08-07T20:05:28.012Z,96525.88
2022-08-07T20:08:01.882Z,96511.91
2022-08-07T20:10:54.549Z,96521.13
2022-08-07T20:13:27.309Z,96523.88
2022-08-07T20:16:02.764Z,96523.38
2022-08-07T20:18:34.302Z,96538.47
2022-08-07T20:21:21.398Z,96545.75
2022-08-07T20:23:57.872Z,96534.06
2022-08-07T20:26:32.682Z,96516.97
2022-08-07T20:29:17.021Z,96538.47
2022-08-07T20:32:05.606Z,96538.66
2022-08-07T20:34:50.778Z,96541.91
2022-08-07T20:37:23.691Z,96543.34
2022-08-07T20:40:02.959Z,96539.13
2022-08-07T20:42:33.902Z,96553.56
2022-08-07T20:45:04.572Z,96559.09
2022-08-07T20:47:56.210Z,96560.19
2022-08-07T20:50:29.128Z,96555.31
2022-08-07T20:52:59.803Z,96553.81
2022-08-07T20:55:32.237Z,96538.88
2022-08-07T20:58:11.813Z,96560.16
2022-08-07T21:00:56.117Z,96554.66
2022-08-07T21:03:26.338Z,96544.59
2022-08-07T21:05:58.460Z,96563.41
2022-08-07T21:08:36.431Z,96556.56
2022-08-07T21:11:12.249Z,96562.44
2022-08-07T21:14:20.257Z,96564.72
2022-08-07T21:16:56.011Z,96564.69
2022-08-07T21:19:32.229Z,96566.47
2022-08-07T21:22:19.067Z,96562.72
2022-08-07T21:24:57.037Z,96551.56
2022-08-07T21:27:47.086Z,96569.19
2022-08-07T21:30:18.464Z,96579.56
2022-08-07T21:32:56.269Z,96571.47
2022-08-07T21:35:34.880Z,96574.72
2022-08-07T21:38:27.747Z,96568.03
2022-08-07T21:41:01.548Z,96565.56
2022-08-07T21:43:56.299Z,96575.94
2022-08-07T21:46:31.842Z,96560.34
2022-08-07T21:49:14.910Z,96526.84
2022-08-07T21:51:54.839Z,96563.66
2022-08-07T21:54:31.164Z,96564.72
2022-08-07T21:57:31.308Z,96570.06
2022-08-07T22:00:09.408Z,96565.69
2022-08-07T22:02:56.176Z,96573.63
2022-08-07T22:05:45.227Z,96564.84
2022-08-07T22:08:18.376Z,96545.28
2022-08-07T22:10:50.776Z,96575.75
2022-08-07T22:13:24.426Z,96572.78
2022-08-07T22:16:43.091Z,96563.34
2022-08-07T22:19:07.456Z,96579.06
2022-08-07T22:22:02.812Z,96580.81
2022-08-07T22:24:34.528Z,96580.44
2022-08-07T22:27:05.689Z,96562.97
2022-08-07T22:29:49.587Z,96565.13
2022-08-07T22:32:28.077Z,96576.34
2022-08-07T22:34:58.102Z,96572.47
2022-08-07T22:38:03.861Z,96584.81
2022-08-07T22:40:28.504Z,96558.53
2022-08-07T22:43:01.779Z,96582.91
2022-08-07T22:46:21.557Z,96578.34
2022-08-07T22:48:55.448Z,96578.34
2022-08-07T22:51:52.019Z,96578.50
2022-08-07T22:54:38.589Z,96567.09
2022-08-07T22:57:17.192Z,96569.84
2022-08-07T22:59:58.708Z,96554.31
2022-08-07T23:02:36.282Z,96575.97
2022-08-07T23:06:14.636Z,96576.34
2022-08-07T23:08:38.125Z,96576.66
2022-08-07T23:11:28.263Z,96574.19
2022-08-07T23:14:22.912Z,96543.28
2022-08-07T23:17:15.643Z,96575.09
2022-08-07T23:20:14.288Z,96569.91
2022-08-07T23:22:55.802Z,96568.66
2022-08-07T23:25:34.538Z,96576.44
2022-08-07T23:28:22.107Z,96573.38
2022-08-07T23:31:11.474Z,96571.25
2022-08-07T23:34:34.365Z,96538.84
2022-08-07T23:37:19.313Z,96572.97
2022-08-07T23:40:05.747Z,96562.91
2022-08-07T23:42:54.875Z,96571.09
2022-08-07T23:46:01.539Z,96533.97
2022-08-07T23:48:30.776Z,96576.28
2022-08-07T23:51:01.523Z,96571.09
2022-08-07T23:53:49.704Z,96574.16
2022-08-07T23:56:26.631Z,96564.09
2022-08-07T23:59:10.960Z,96563.28
